createdAt,value
2022-12-24T00:00:10.995Z,19.23
2022-12-24T00:02:41.122Z,21.97
2022-12-24T00:05:08.988Z,23.57
2022-12-24T00:07:37.871Z,21.87
2022-12-24T00:10:05.720Z,21.93
2022-12-24T00:12:32.549Z,19.67
2022-12-24T00:14:59.287Z,21.80
2022-12-24T00:17:26.471Z,21.10
2022-12-24T00:19:53.405Z,22.67
2022-12-24T00:22:20.091Z,21.57
2022-12-24T00:24:46.866Z,23.50
2022-12-24T00:27:15.547Z,25.00
2022-12-24T00:29:42.389Z,22.93
2022-12-24T00:32:10.390Z,22.40
2022-12-24T00:34:38.727Z,19.63
2022-12-24T00:37:06.718Z,23.53
2022-12-24T00:39:34.346Z,22.97
2022-12-24T00:42:00.998Z,27.07
2022-12-24T00:44:27.909Z,21.70
2022-12-24T00:46:54.754Z,22.27
2022-12-24T00:49:21.557Z,20.37
2022-12-24T00:51:51.252Z,26.83
2022-12-24T00:54:18.046Z,20.93
2022-12-24T00:56:47.441Z,29.00
2022-12-24T00:59:14.321Z,27.27
2022-12-24T01:01:41.093Z,27.07
2022-12-24T01:04:31.090Z,23.67
2022-12-24T01:06:57.680Z,27.83
2022-12-24T01:09:24.869Z,24.97
2022-12-24T01:11:52.290Z,30.37
2022-12-24T01:14:19.091Z,26.53
2022-12-24T01:16:45.752Z,27.93
2022-12-24T01:19:12.389Z,27.07
2022-12-24T01:21:39.047Z,27.30
2022-12-24T01:24:07.828Z,28.20
2022-12-24T01:26:34.572Z,33.70
2022-12-24T01:29:01.218Z,29.13
2022-12-24T01:31:27.865Z,27.93
2022-12-24T01:33:54.577Z,31.60
2022-12-24T01:36:24.051Z,28.83
2022-12-24T01:38:50.764Z,30.00
2022-12-24T01:41:40.924Z,27.53
2022-12-24T01:44:17.479Z,27.27
2022-12-24T01:46:53.513Z,26.47
2022-12-24T01:49:23.353Z,26.40
2022-12-24T01:51:56.820Z,27.43
2022-12-24T01:54:30.595Z,24.05
2022-12-24T01:57:05.547Z,22.50
2022-12-24T01:59:32.962Z,24.73
2022-12-24T02:01:59.693Z,21.77
2022-12-24T02:04:34.715Z,26.73
2022-12-24T02:07:01.348Z,18.90
2022-12-24T02:09:28.803Z,23.97
2022-12-24T02:11:58.663Z,21.03
2022-12-24T02:14:26.846Z,26.13
2022-12-24T02:17:02.754Z,19.80
2022-12-24T02:20:10.792Z,20.90
2022-12-24T02:23:02.317Z,21.67
2022-12-24T02:26:04.556Z,20.47
2022-12-24T02:29:08.862Z,19.43
2022-12-24T02:31:41.345Z,24.02
2022-12-24T02:34:18.228Z,18.87
2022-12-24T02:36:49.517Z,20.20
2022-12-24T02:39:22.366Z,19.73
2022-12-24T02:42:08.348Z,18.73
2022-12-24T02:44:45.912Z,19.13
2022-12-24T02:47:13.609Z,17.37
2022-12-24T02:49:44.376Z,19.93
2022-12-24T02:52:36.812Z,21.30
2022-12-24T02:55:11.154Z,17.80
2022-12-24T03:00:08.575Z,16.00
2022-12-24T03:02:54.013Z,19.70
2022-12-24T03:05:35.691Z,18.40
2022-12-24T03:08:24.494Z,18.53
2022-12-24T03:10:58.026Z,17.20
2022-12-24T03:13:25.466Z,19.02
2022-12-24T03:15:52.456Z,18.03
2022-12-24T03:18:22.112Z,17.77
2022-12-24T03:20:54.647Z,16.80
2022-12-24T03:23:21.533Z,18.60
2022-12-24T03:25:48.776Z,19.30
2022-12-24T03:28:17.145Z,16.87
2022-12-24T03:30:46.123Z,19.83
2022-12-24T03:33:13.511Z,15.53
2022-12-24T03:35:40.351Z,17.00
2022-12-24T03:38:09.365Z,18.47
2022-12-24T03:40:36.232Z,21.83
2022-12-24T03:43:03.017Z,17.47
2022-12-24T03:45:29.924Z,17.43
2022-12-24T03:47:56.580Z,19.13
2022-12-24T03:50:23.221Z,16.57
2022-12-24T03:52:49.832Z,20.13
2022-12-24T03:55:16.511Z,14.20
2022-12-24T03:57:43.103Z,17.63
2022-12-24T04:00:10.477Z,16.37
2022-12-24T04:02:37.405Z,18.27
2022-12-24T04:05:04.689Z,18.23
2022-12-24T04:07:33.077Z,13.47
2022-12-24T04:09:59.828Z,16.67
2022-12-24T04:12:26.543Z,18.43
2022-12-24T04:14:53.178Z,14.70
2022-12-24T04:17:19.780Z,21.37
2022-12-24T04:19:46.424Z,18.73
2022-12-24T04:22:13.027Z,16.70
2022-12-24T04:24:39.768Z,13.47
2022-12-24T04:27:06.362Z,18.20
2022-12-24T04:29:33.239Z,18.87
2022-12-24T04:31:59.914Z,17.30
2022-12-24T04:34:27.523Z,13.00
2022-12-24T04:36:54.235Z,18.13
2022-12-24T04:39:20.925Z,17.30
2022-12-24T04:41:49.860Z,16.93
2022-12-24T04:44:16.442Z,14.70
2022-12-24T04:46:43.031Z,13.80
2022-12-24T04:49:09.653Z,13.50
2022-12-24T04:51:36.447Z,15.53
2022-12-24T04:54:03.147Z,15.93
2022-12-24T04:56:31.150Z,15.07
2022-12-24T04:58:59.023Z,14.43
2022-12-24T05:01:30.922Z,15.83
2022-12-24T05:03:57.918Z,15.37
2022-12-24T05:06:27.382Z,17.43
2022-12-24T05:08:55.720Z,12.63
2022-12-24T05:11:22.391Z,14.60
2022-12-24T05:13:49.042Z,14.83
2022-12-24T05:16:17.793Z,14.67
2022-12-24T05:18:44.548Z,17.07
2022-12-24T05:21:13.853Z,14.37
2022-12-24T05:23:59.184Z,14.20
2022-12-24T05:26:28.774Z,14.13
2022-12-24T05:28:57.556Z,17.97
2022-12-24T05:31:26.174Z,16.43
2022-12-24T05:33:54.772Z,15.57
2022-12-24T05:36:22.102Z,17.50
2022-12-24T05:38:48.945Z,13.97
2022-12-24T05:41:15.646Z,16.83
2022-12-24T05:43:42.331Z,15.13
2022-12-24T05:46:11.392Z,18.23
2022-12-24T05:48:38.071Z,13.80
2022-12-24T05:51:06.642Z,14.43
2022-12-24T05:53:33.831Z,13.93
2022-12-24T05:56:09.098Z,15.23
2022-12-24T05:58:36.421Z,18.13
2022-12-24T06:01:04.341Z,16.00
2022-12-24T06:03:31.676Z,12.97
2022-12-24T06:06:03.291Z,15.83
2022-12-24T06:08:30.575Z,15.10
2022-12-24T06:10:58.787Z,15.10
2022-12-24T06:13:25.710Z,15.93
2022-12-24T06:15:56.268Z,15.67
2022-12-24T06:18:23.227Z,14.50
2022-12-24T06:20:54.284Z,15.73
2022-12-24T06:23:21.598Z,14.33
2022-12-24T06:25:48.473Z,13.90
2022-12-24T06:28:15.135Z,15.47
2022-12-24T06:30:42.308Z,13.97
2022-12-24T06:33:08.930Z,14.23
2022-12-24T06:35:35.538Z,17.40
2022-12-24T06:38:02.113Z,12.73
2022-12-24T06:40:29.148Z,14.30
2022-12-24T06:42:55.748Z,13.07
2022-12-24T06:45:22.389Z,15.33
2022-12-24T06:47:48.961Z,15.53
2022-12-24T06:50:15.915Z,12.27
2022-12-24T06:52:42.492Z,12.17
2022-12-24T06:55:09.506Z,13.37
2022-12-24T06:57:36.159Z,10.50
2022-12-24T07:00:02.878Z,12.17
2022-12-24T07:02:29.561Z,13.23
2022-12-24T07:04:56.323Z,10.97
2022-12-24T07:07:22.974Z,15.03
2022-12-24T07:09:49.572Z,13.10
2022-12-24T07:12:16.182Z,14.63
2022-12-24T07:14:42.954Z,14.30
2022-12-24T07:17:09.606Z,10.53
2022-12-24T07:19:36.343Z,13.43
2022-12-24T07:22:09.037Z,14.70
2022-12-24T07:24:40.878Z,13.53
2022-12-24T07:27:08.830Z,11.50
2022-12-24T07:29:35.570Z,14.13
2022-12-24T07:32:02.603Z,14.23
2022-12-24T07:34:29.419Z,15.27
2022-12-24T07:36:56.120Z,11.73
2022-12-24T07:39:22.888Z,14.37
2022-12-24T07:41:50.502Z,11.27
2022-12-24T07:44:17.280Z,13.07
2022-12-24T07:46:44.577Z,12.83
2022-12-24T07:49:11.447Z,13.17
2022-12-24T07:51:38.069Z,14.87
2022-12-24T07:54:05.049Z,12.93
2022-12-24T07:56:32.493Z,12.67
2022-12-24T07:58:59.376Z,13.10
2022-12-24T08:01:26.411Z,11.57
2022-12-24T08:03:54.684Z,12.43
2022-12-24T08:06:22.226Z,12.03
2022-12-24T08:08:49.265Z,11.07
2022-12-24T08:11:16.603Z,22.90
2022-12-24T08:13:43.340Z,14.77
2022-12-24T08:16:10.369Z,13.07
2022-12-24T08:18:37.155Z,11.73
2022-12-24T08:21:07.421Z,10.73
2022-12-24T08:23:36.204Z,10.70
2022-12-24T08:26:03.017Z,13.20
2022-12-24T08:28:29.938Z,13.67
2022-12-24T08:30:56.579Z,11.87
2022-12-24T08:33:23.334Z,11.13
2022-12-24T08:35:54.207Z,10.90
2022-12-24T08:38:21.002Z,12.30
2022-12-24T08:40:49.865Z,11.00
2022-12-24T08:43:17.644Z,12.37
2022-12-24T08:45:44.501Z,12.80
2022-12-24T08:48:12.412Z,11.43
2022-12-24T08:50:40.684Z,13.37
2022-12-24T08:53:07.780Z,9.20
2022-12-24T08:55:34.858Z,10.87
2022-12-24T08:58:01.536Z,10.57
2022-12-24T09:00:28.290Z,12.13
2022-12-24T09:02:56.289Z,11.43
2022-12-24T09:05:23.033Z,13.07
2022-12-24T09:07:49.632Z,10.23
2022-12-24T09:10:17.180Z,9.97
2022-12-24T09:12:43.955Z,9.43
2022-12-24T09:15:10.771Z,13.20
2022-12-24T09:17:37.695Z,9.60
2022-12-24T09:20:06.925Z,11.93
2022-12-24T09:22:38.487Z,9.53
2022-12-24T09:25:10.536Z,11.93
2022-12-24T09:27:37.750Z,9.87
2022-12-24T09:30:06.340Z,10.77
2022-12-24T09:32:33.672Z,10.90
2022-12-24T09:35:00.388Z,12.53
2022-12-24T09:37:27.070Z,12.03
2022-12-24T09:39:53.779Z,11.67
2022-12-24T09:42:29.137Z,12.57
2022-12-24T09:45:04.033Z,12.40
2022-12-24T09:47:41.241Z,11.07
2022-12-24T09:50:27.360Z,11.57
2022-12-24T09:52:55.067Z,12.40
2022-12-24T09:55:32.065Z,13.60
2022-12-24T09:57:59.897Z,9.40
2022-12-24T10:00:32.332Z,8.13
2022-12-24T10:02:59.267Z,12.13
2022-12-24T10:05:37.516Z,9.07
2022-12-24T10:08:11.100Z,11.23
2022-12-24T10:10:43.378Z,9.48
2022-12-24T10:13:19.148Z,11.47
2022-12-24T10:16:01.199Z,11.33
2022-12-24T10:18:40.264Z,9.10
2022-12-24T10:21:17.186Z,11.37
2022-12-24T10:23:55.392Z,11.80
2022-12-24T10:26:45.367Z,14.20
2022-12-24T10:29:21.482Z,12.00
2022-12-24T10:31:57.433Z,10.47
2022-12-24T10:34:25.393Z,14.60
2022-12-24T10:36:52.089Z,14.63
2022-12-24T10:39:21.577Z,11.50
2022-12-24T10:41:52.700Z,13.20
2022-12-24T10:44:22.730Z,12.27
2022-12-24T10:46:49.605Z,14.63
2022-12-24T10:49:19.274Z,10.87
2022-12-24T10:51:54.954Z,24.40
2022-12-24T10:54:27.281Z,20.77
2022-12-24T10:57:01.730Z,18.03
2022-12-24T10:59:37.287Z,14.20
2022-12-24T11:02:04.052Z,14.23
2022-12-24T11:04:32.796Z,18.13
2022-12-24T11:07:04.892Z,14.07
2022-12-24T11:09:37.191Z,12.70
2022-12-24T11:12:09.375Z,16.53
2022-12-24T11:14:38.721Z,12.43
2022-12-24T11:17:06.393Z,15.93
2022-12-24T11:19:36.158Z,13.27
2022-12-24T11:22:18.720Z,12.87
2022-12-24T11:24:50.024Z,22.43
2022-12-24T11:27:42.650Z,27.50
2022-12-24T11:30:15.435Z,14.70
2022-12-24T11:32:46.291Z,15.80
2022-12-24T11:35:21.742Z,14.53
2022-12-24T11:38:00.494Z,14.63
2022-12-24T11:40:37.100Z,17.03
2022-12-24T11:43:10.986Z,16.27
2022-12-24T11:45:57.153Z,14.90
2022-12-24T11:48:29.409Z,16.07
2022-12-24T11:51:01.457Z,13.43
2022-12-24T11:53:42.369Z,15.07
2022-12-24T11:56:17.545Z,16.83
2022-12-24T11:58:52.412Z,13.60
2022-12-24T12:01:30.148Z,12.67
2022-12-24T12:04:09.200Z,12.40
2022-12-24T12:06:40.619Z,12.63
2022-12-24T12:09:14.296Z,12.43
2022-12-24T12:11:43.998Z,13.75
2022-12-24T12:14:19.462Z,13.00
2022-12-24T12:17:01.775Z,14.10
2022-12-24T12:19:31.600Z,13.27
2022-12-24T12:21:58.669Z,12.43
2022-12-24T12:24:40.399Z,13.33
2022-12-24T12:27:32.276Z,13.67
2022-12-24T12:30:03.020Z,12.40
2022-12-24T12:32:53.612Z,15.60
2022-12-24T12:35:26.449Z,14.37
2022-12-24T12:37:58.423Z,13.53
2022-12-24T12:40:51.355Z,13.87
2022-12-24T12:43:28.534Z,13.50
2022-12-24T12:45:58.915Z,10.63
2022-12-24T12:48:47.062Z,14.13
2022-12-24T12:51:36.653Z,14.73
2022-12-24T12:54:21.111Z,15.63
2022-12-24T12:56:52.320Z,12.48
2022-12-24T12:59:33.995Z,15.00
2022-12-24T13:02:26.404Z,13.43
2022-12-24T13:05:05.220Z,15.97
2022-12-24T13:07:50.221Z,14.77
2022-12-24T13:10:19.763Z,13.70
2022-12-24T13:12:56.912Z,15.70
2022-12-24T13:15:29.569Z,12.97
2022-12-24T13:18:24.105Z,14.53
2022-12-24T13:20:52.358Z,12.60
2022-12-24T13:23:21.820Z,13.47
2022-12-24T13:25:50.729Z,16.27
2022-12-24T13:28:20.618Z,13.20
2022-12-24T13:30:48.761Z,15.17
2022-12-24T13:33:33.729Z,12.77
2022-12-24T13:36:02.463Z,13.30
2022-12-24T13:38:29.383Z,11.37
2022-12-24T13:40:56.313Z,12.80
2022-12-24T13:43:23.129Z,15.47
2022-12-24T13:45:51.185Z,13.90
2022-12-24T13:48:29.312Z,15.47
2022-12-24T13:51:01.997Z,12.57
2022-12-24T13:53:33.150Z,13.50
2022-12-24T13:56:09.665Z,14.73
2022-12-24T13:58:39.062Z,12.20
2022-12-24T14:01:09.336Z,13.43
2022-12-24T14:03:48.856Z,15.63
2022-12-24T14:06:28.715Z,14.00
2022-12-24T14:08:59.233Z,14.40
2022-12-24T14:11:28.309Z,12.57
2022-12-24T14:14:05.907Z,11.93
2022-12-24T14:16:42.617Z,13.67
2022-12-24T14:19:23.922Z,10.37
2022-12-24T14:22:01.998Z,12.50
2022-12-24T14:24:35.115Z,11.33
2022-12-24T14:27:17.953Z,11.27
2022-12-24T14:30:01.579Z,11.37
2022-12-24T14:32:36.920Z,13.00
2022-12-24T14:35:21.384Z,16.00
2022-12-24T14:37:59.525Z,13.98
2022-12-24T14:40:29.061Z,13.07
2022-12-24T14:43:26.184Z,12.67
2022-12-24T14:46:07.589Z,13.23
2022-12-24T14:48:34.615Z,13.37
2022-12-24T14:51:10.773Z,12.70
2022-12-24T14:53:53.527Z,16.20
2022-12-24T14:56:22.466Z,11.53
2022-12-24T14:58:49.847Z,10.13
2022-12-24T15:01:24.363Z,10.23
2022-12-24T15:04:04.491Z,10.33
2022-12-24T15:06:34.037Z,9.90
2022-12-24T15:09:00.979Z,10.33
2022-12-24T15:11:27.848Z,10.27
2022-12-24T15:13:57.584Z,8.93
2022-12-24T15:16:31.245Z,10.27
2022-12-24T15:19:02.005Z,11.30
2022-12-24T15:21:41.348Z,9.37
2022-12-24T15:24:32.317Z,14.83
2022-12-24T15:27:00.196Z,15.97
2022-12-24T15:29:29.602Z,14.43
2022-12-24T15:31:58.649Z,11.57
2022-12-24T15:34:30.764Z,9.97
2022-12-24T15:37:07.918Z,10.10
2022-12-24T15:39:34.762Z,9.93
2022-12-24T15:42:13.554Z,10.37
2022-12-24T15:45:02.286Z,9.70
2022-12-24T15:47:38.010Z,8.67
2022-12-24T15:50:35.421Z,8.40
2022-12-24T15:53:20.879Z,9.00
2022-12-24T15:56:09.689Z,11.13
2022-12-24T15:58:40.761Z,10.03
2022-12-24T16:01:13.594Z,10.10
2022-12-24T16:03:42.520Z,9.47
2022-12-24T16:06:14.069Z,10.00
2022-12-24T16:08:42.120Z,7.73
2022-12-24T16:11:16.144Z,9.23
2022-12-24T16:14:02.669Z,8.68
2022-12-24T16:16:49.382Z,8.67
2022-12-24T16:19:25.616Z,11.23
2022-12-24T16:21:57.055Z,9.63
2022-12-24T16:24:26.146Z,9.37
2022-12-24T16:26:53.071Z,9.50
2022-12-24T16:29:20.213Z,8.13
2022-12-24T16:31:53.693Z,11.23
2022-12-24T16:34:23.871Z,12.30
2022-12-24T16:36:50.676Z,11.87
2022-12-24T16:39:25.474Z,12.30
2022-12-24T16:42:11.859Z,15.00
2022-12-24T16:44:38.932Z,13.80
2022-12-24T16:47:35.854Z,13.80
2022-12-24T16:50:15.024Z,15.43
2022-12-24T16:52:42.010Z,13.93
2022-12-24T16:55:12.404Z,13.60
2022-12-24T16:57:40.176Z,14.30
2022-12-24T17:00:09.238Z,11.90
2022-12-24T17:02:39.416Z,12.07
2022-12-24T17:05:08.127Z,11.90
2022-12-24T17:07:43.698Z,13.30
2022-12-24T17:10:14.063Z,14.23
2022-12-24T17:12:41.651Z,13.87
2022-12-24T17:15:09.081Z,14.97
2022-12-24T17:17:36.102Z,11.93
2022-12-24T17:20:04.853Z,11.33
2022-12-24T17:22:31.771Z,11.10
2022-12-24T17:24:58.591Z,12.97
2022-12-24T17:27:25.282Z,11.10
2022-12-24T17:29:52.060Z,10.27
2022-12-24T17:32:18.852Z,9.23
2022-12-24T17:34:45.800Z,10.53
2022-12-24T17:37:17.256Z,9.23
2022-12-24T17:40:17.726Z,10.90
2022-12-24T17:42:50.748Z,10.87
2022-12-24T17:45:22.939Z,9.02
2022-12-24T17:47:54.303Z,8.20
2022-12-24T17:50:27.786Z,9.37
2022-12-24T17:53:00.571Z,9.65
2022-12-24T17:55:28.873Z,9.93
2022-12-24T17:58:05.001Z,9.57
2022-12-24T18:00:38.903Z,7.93
2022-12-24T18:03:10.074Z,11.87
2022-12-24T18:05:43.901Z,9.93
2022-12-24T18:08:18.711Z,7.32
2022-12-24T18:10:47.567Z,9.73
2022-12-24T18:13:19.340Z,9.83
2022-12-24T18:15:46.527Z,11.17
2022-12-24T18:18:13.312Z,8.67
2022-12-24T18:20:46.264Z,14.27
2022-12-24T18:23:14.779Z,10.48
2022-12-24T18:25:41.490Z,11.47
2022-12-24T18:28:08.328Z,8.80
2022-12-24T18:30:34.914Z,7.47
2022-12-24T18:33:01.511Z,9.00
2022-12-24T18:35:28.307Z,7.90
2022-12-24T18:37:54.903Z,9.83
2022-12-24T18:40:21.538Z,10.90
2022-12-24T18:42:50.473Z,9.80
2022-12-24T18:45:17.383Z,10.40
2022-12-24T18:47:44.123Z,9.33
2022-12-24T18:50:10.759Z,11.93
2022-12-24T18:52:37.465Z,13.20
2022-12-24T18:55:04.184Z,12.53
2022-12-24T18:57:30.848Z,19.00
2022-12-24T18:59:57.513Z,10.50
2022-12-24T19:02:30.709Z,13.10
2022-12-24T19:05:04.669Z,16.33
2022-12-24T19:07:37.790Z,10.63
2022-12-24T19:10:08.938Z,12.07
2022-12-24T19:12:41.672Z,13.77
2022-12-24T19:15:15.872Z,15.10
2022-12-24T19:17:43.712Z,14.23
2022-12-24T19:20:11.192Z,11.50
2022-12-24T19:22:37.868Z,12.30
2022-12-24T19:25:09.545Z,10.83
2022-12-24T19:27:37.218Z,14.00
2022-12-24T19:30:05.766Z,13.43
2022-12-24T19:32:32.482Z,13.50
2022-12-24T19:34:59.271Z,10.40
2022-12-24T19:37:27.901Z,11.40
2022-12-24T19:39:56.672Z,11.70
2022-12-24T19:42:25.285Z,11.27
2022-12-24T19:45:00.136Z,11.27
2022-12-24T19:47:34.177Z,11.30
2022-12-24T19:50:09.161Z,11.10
2022-12-24T19:52:43.885Z,15.20
2022-12-24T19:55:18.099Z,11.90
2022-12-24T19:57:52.415Z,10.63
2022-12-24T20:00:26.407Z,11.77
2022-12-24T20:03:01.709Z,9.93
2022-12-24T20:05:34.153Z,10.50
2022-12-24T20:08:05.901Z,12.27
2022-12-24T20:10:41.756Z,13.73
2022-12-24T20:13:09.084Z,11.93
2022-12-24T20:15:43.484Z,12.00
2022-12-24T20:18:11.788Z,9.60
2022-12-24T20:20:38.892Z,10.20
2022-12-24T20:23:06.920Z,13.53
2022-12-24T20:25:37.683Z,14.87
2022-12-24T20:28:05.397Z,16.20
2022-12-24T20:30:32.445Z,14.80
2022-12-24T20:32:59.491Z,13.33
2022-12-24T20:35:26.142Z,13.37
2022-12-24T20:37:52.730Z,13.80
2022-12-24T20:40:19.586Z,11.33
2022-12-24T20:42:46.258Z,12.67
2022-12-24T20:45:13.256Z,13.07
2022-12-24T20:47:40.687Z,13.00
2022-12-24T20:50:08.672Z,21.47
2022-12-24T20:52:35.325Z,13.63
2022-12-24T20:55:02.169Z,17.50
2022-12-24T20:57:35.910Z,15.33
2022-12-24T21:00:05.100Z,12.70
2022-12-24T21:02:32.139Z,12.40
2022-12-24T21:05:02.185Z,10.77
2022-12-24T21:07:31.159Z,13.10
2022-12-24T21:09:57.915Z,12.37
2022-12-24T21:12:43.870Z,12.60
2022-12-24T21:15:11.399Z,13.80
2022-12-24T21:17:38.553Z,13.27
2022-12-24T21:20:05.763Z,13.63
2022-12-24T21:22:32.558Z,15.10
2022-12-24T21:24:59.608Z,13.30
2022-12-24T21:27:26.311Z,11.37
2022-12-24T21:29:53.029Z,11.77
2022-12-24T21:32:19.863Z,12.40
2022-12-24T21:34:46.792Z,13.10
2022-12-24T21:37:13.480Z,11.63
2022-12-24T21:39:40.169Z,12.37
2022-12-24T21:42:06.868Z,16.53
2022-12-24T21:44:37.379Z,15.53
2022-12-24T21:47:04.333Z,13.87
2022-12-24T21:49:49.707Z,11.07
2022-12-24T21:52:16.317Z,11.77
2022-12-24T21:54:42.993Z,10.63
2022-12-24T21:57:28.247Z,11.50
2022-12-24T21:59:57.263Z,10.30
2022-12-24T22:02:28.476Z,10.47
2022-12-24T22:04:55.363Z,13.13
2022-12-24T22:07:45.858Z,11.60
2022-12-24T22:10:32.268Z,12.73
2022-12-24T22:12:59.942Z,12.93
2022-12-24T22:15:27.411Z,9.40
2022-12-24T22:17:54.104Z,12.80
2022-12-24T22:20:20.749Z,15.63
2022-12-24T22:22:48.768Z,15.17
2022-12-24T22:25:16.390Z,12.50
2022-12-24T22:27:43.205Z,17.80
2022-12-24T22:30:13.184Z,14.00
2022-12-24T22:32:40.043Z,12.07
2022-12-24T22:35:07.179Z,13.07
2022-12-24T22:37:34.084Z,14.60
2022-12-24T22:40:01.062Z,12.93
2022-12-24T22:42:28.133Z,10.83
2022-12-24T22:44:55.223Z,12.20
2022-12-24T22:47:22.167Z,12.57
2022-12-24T22:49:48.988Z,11.97
2022-12-24T22:52:15.849Z,13.20
2022-12-24T22:54:42.517Z,11.13
2022-12-24T22:57:09.256Z,11.67
2022-12-24T22:59:36.347Z,8.90
2022-12-24T23:02:07.503Z,11.17
2022-12-24T23:04:39.067Z,10.13
2022-12-24T23:07:07.655Z,11.30
2022-12-24T23:09:34.513Z,17.90
2022-12-24T23:12:01.779Z,11.80
2022-12-24T23:14:47.177Z,10.07
2022-12-24T23:17:14.258Z,12.67
2022-12-24T23:19:41.263Z,13.27
2022-12-24T23:22:08.765Z,9.83
2022-12-24T23:24:38.015Z,12.97
2022-12-24T23:27:05.542Z,12.93
2022-12-24T23:29:33.263Z,11.13
2022-12-24T23:32:00.346Z,19.37
2022-12-24T23:34:27.358Z,18.17
2022-12-24T23:36:54.267Z,11.20
2022-12-24T23:39:20.994Z,16.03
2022-12-24T23:41:47.878Z,16.33
2022-12-24T23:44:14.654Z,23.50
2022-12-24T23:46:41.407Z,17.70
2022-12-24T23:49:08.246Z,16.13
2022-12-24T23:51:35.070Z,20.53
2022-12-24T23:54:01.917Z,15.87
2022-12-24T23:56:28.802Z,19.73
2022-12-24T23:58:55.782Z,21.57
